createdAt,value
2022-12-20T00:01:56.092Z,8.83
2022-12-20T00:04:24.657Z,9.77
2022-12-20T00:06:53.099Z,9.53
2022-12-20T00:09:21.594Z,8.60
2022-12-20T00:11:50.016Z,9.07
2022-12-20T00:14:19.061Z,9.17
2022-12-20T00:16:47.499Z,8.90
2022-12-20T00:19:16.082Z,9.17
2022-12-20T00:21:44.569Z,8.43
2022-12-20T00:24:13.011Z,9.77
2022-12-20T00:26:41.458Z,9.57
2022-12-20T00:29:09.897Z,8.20
2022-12-20T00:31:38.883Z,10.03
2022-12-20T00:34:07.519Z,9.87
2022-12-20T00:36:36.015Z,9.67
2022-12-20T00:39:04.698Z,9.50
2022-12-20T00:41:35.636Z,9.73
2022-12-20T00:44:05.368Z,9.67
2022-12-20T00:46:34.457Z,10.20
2022-12-20T00:49:03.133Z,9.97
2022-12-20T00:51:33.021Z,8.93
2022-12-20T00:54:01.543Z,10.17
2022-12-20T00:56:30.151Z,9.97
2022-12-20T00:59:00.674Z,10.17
2022-12-20T01:01:35.183Z,10.10
2022-12-20T01:04:03.750Z,10.17
2022-12-20T01:06:33.080Z,10.13
2022-12-20T01:09:01.820Z,9.30
2022-12-20T01:11:36.668Z,9.90
2022-12-20T01:14:09.734Z,10.57
2022-12-20T01:16:42.358Z,9.77
2022-12-20T01:19:15.071Z,9.50
2022-12-20T01:21:45.369Z,9.97
2022-12-20T01:24:20.549Z,9.77
2022-12-20T01:26:49.402Z,9.53
2022-12-20T01:29:18.084Z,9.90
2022-12-20T01:31:46.762Z,9.77
2022-12-20T01:34:15.401Z,9.80
2022-12-20T01:36:43.844Z,10.53
2022-12-20T01:39:18.153Z,10.27
2022-12-20T01:41:48.408Z,10.00
2022-12-20T01:44:19.544Z,9.73
2022-12-20T01:46:50.867Z,9.27
2022-12-20T01:49:24.258Z,11.57
2022-12-20T01:52:01.991Z,10.37
2022-12-20T01:54:55.208Z,10.10
2022-12-20T01:57:31.241Z,10.60
2022-12-20T02:09:17.164Z,10.53
2022-12-20T02:37:37.956Z,10.40
2022-12-20T02:40:06.882Z,10.73
2022-12-20T02:42:35.774Z,10.37
2022-12-20T02:45:15.321Z,11.03
2022-12-20T02:48:22.375Z,10.43
2022-12-20T02:50:54.232Z,10.60
2022-12-20T02:53:23.921Z,12.40
2022-12-20T02:56:14.606Z,11.13
2022-12-20T02:58:56.611Z,10.37
2022-12-20T03:01:50.084Z,11.80
2022-12-20T03:04:22.421Z,11.70
2022-12-20T03:07:04.461Z,11.67
2022-12-20T03:09:34.991Z,11.53
2022-12-20T03:12:03.698Z,11.13
2022-12-20T03:14:32.171Z,11.93
2022-12-20T03:17:00.700Z,12.00
2022-12-20T03:19:29.251Z,11.77
2022-12-20T03:21:57.913Z,12.83
2022-12-20T03:24:26.598Z,12.23
2022-12-20T03:26:55.116Z,12.10
2022-12-20T03:29:23.718Z,12.63
2022-12-20T03:31:52.293Z,12.27
2022-12-20T03:34:20.888Z,12.40
2022-12-20T03:36:50.051Z,12.70
2022-12-20T03:39:18.500Z,11.37
2022-12-20T03:41:46.891Z,11.90
2022-12-20T03:44:15.329Z,13.13
2022-12-20T03:46:43.884Z,12.33
2022-12-20T03:49:12.323Z,13.10
2022-12-20T03:51:40.733Z,12.60
2022-12-20T03:54:09.219Z,12.20
2022-12-20T03:56:37.642Z,12.87
2022-12-20T03:59:06.300Z,13.07
2022-12-20T04:01:36.735Z,12.97
2022-12-20T04:04:05.740Z,12.23
2022-12-20T04:06:34.138Z,12.83
2022-12-20T04:09:02.552Z,12.73
2022-12-20T04:11:31.049Z,13.37
2022-12-20T04:13:59.196Z,13.23
2022-12-20T04:16:30.482Z,12.60
2022-12-20T04:18:59.458Z,13.03
2022-12-20T04:21:35.347Z,12.47
2022-12-20T04:24:05.472Z,13.23
2022-12-20T04:26:33.959Z,12.77
2022-12-20T04:29:02.389Z,14.40
2022-12-20T04:31:30.947Z,12.87
2022-12-20T04:33:59.565Z,14.03
2022-12-20T04:36:27.964Z,12.93
2022-12-20T04:38:56.501Z,12.63
2022-12-20T04:41:24.869Z,12.63
2022-12-20T04:43:58.603Z,13.00
2022-12-20T04:46:27.680Z,12.93
2022-12-20T04:48:58.730Z,12.70
2022-12-20T04:51:28.522Z,13.27
2022-12-20T04:53:56.132Z,13.10
2022-12-20T04:56:30.021Z,12.13
2022-12-20T04:58:59.938Z,12.47
2022-12-20T05:01:28.941Z,13.00
2022-12-20T05:03:57.623Z,12.97
2022-12-20T05:06:26.081Z,12.50
2022-12-20T05:08:55.195Z,12.60
2022-12-20T05:11:23.637Z,12.70
2022-12-20T05:13:52.008Z,11.50
2022-12-20T05:16:20.519Z,12.23
2022-12-20T05:18:49.713Z,11.93
2022-12-20T05:21:35.757Z,11.47
2022-12-20T05:24:21.672Z,12.43
2022-12-20T05:26:50.256Z,11.30
2022-12-20T05:29:18.703Z,12.67
2022-12-20T05:31:47.571Z,12.27
2022-12-20T05:34:16.207Z,12.37
2022-12-20T05:36:44.672Z,11.33
2022-12-20T05:39:13.023Z,11.70
2022-12-20T05:41:41.671Z,11.43
2022-12-20T05:44:10.601Z,11.57
2022-12-20T05:46:39.107Z,12.17
2022-12-20T05:49:07.606Z,11.37
2022-12-20T05:51:36.543Z,12.07
2022-12-20T05:54:05.876Z,11.70
2022-12-20T05:56:34.405Z,10.70
2022-12-20T05:59:02.794Z,11.13
2022-12-20T06:01:31.934Z,10.80
2022-12-20T06:04:00.663Z,11.53
2022-12-20T06:06:29.109Z,11.83
2022-12-20T06:08:57.588Z,11.63
2022-12-20T06:11:30.209Z,11.27
2022-12-20T06:13:59.408Z,10.27
2022-12-20T06:16:28.586Z,11.00
2022-12-20T06:18:57.501Z,11.27
2022-12-20T06:21:27.678Z,11.73
2022-12-20T06:23:56.730Z,11.23
2022-12-20T06:26:25.176Z,10.43
2022-12-20T06:28:54.801Z,11.10
2022-12-20T06:31:23.310Z,11.80
2022-12-20T06:33:51.445Z,11.37
2022-12-20T06:36:19.894Z,10.53
2022-12-20T06:38:48.327Z,11.60
2022-12-20T06:41:16.789Z,11.03
2022-12-20T06:43:45.211Z,10.30
2022-12-20T06:46:13.811Z,10.97
2022-12-20T06:48:41.869Z,10.80
2022-12-20T06:51:11.147Z,10.80
2022-12-20T06:53:39.273Z,11.90
2022-12-20T06:56:07.887Z,11.50
2022-12-20T06:58:36.352Z,11.63
2022-12-20T07:01:04.474Z,11.63
2022-12-20T07:03:33.075Z,10.67
2022-12-20T07:06:02.187Z,10.90
2022-12-20T07:08:30.177Z,11.87
2022-12-20T07:10:59.659Z,10.80
2022-12-20T07:13:28.173Z,11.70
2022-12-20T07:16:01.103Z,10.43
2022-12-20T07:18:29.952Z,11.00
2022-12-20T07:21:02.648Z,10.40
2022-12-20T07:23:31.245Z,11.00
2022-12-20T07:26:03.804Z,11.37
2022-12-20T07:28:32.401Z,10.73
2022-12-20T07:31:04.210Z,11.77
2022-12-20T07:33:33.188Z,10.67
2022-12-20T07:36:06.685Z,12.57
2022-12-20T07:38:36.620Z,10.53
2022-12-20T07:41:10.412Z,12.27
2022-12-20T07:43:39.186Z,12.17
2022-12-20T07:46:08.718Z,11.27
2022-12-20T07:48:37.307Z,12.03
2022-12-20T07:51:11.557Z,12.20
2022-12-20T07:53:46.876Z,11.60
2022-12-20T07:56:16.583Z,11.87
2022-12-20T07:58:45.463Z,12.13
2022-12-20T08:01:14.872Z,12.17
2022-12-20T08:03:53.079Z,12.30
2022-12-20T08:06:21.390Z,12.03
2022-12-20T08:08:54.729Z,12.40
2022-12-20T08:11:24.781Z,12.23
2022-12-20T08:13:57.844Z,12.87
2022-12-20T08:16:27.030Z,12.27
2022-12-20T08:18:55.154Z,12.53
2022-12-20T08:21:23.164Z,13.57
2022-12-20T08:23:51.925Z,12.90
2022-12-20T08:26:20.341Z,13.30
2022-12-20T08:28:48.777Z,13.33
2022-12-20T08:31:17.325Z,14.43
2022-12-20T08:33:45.403Z,12.63
2022-12-20T08:36:14.919Z,12.03
2022-12-20T08:38:43.680Z,12.57
2022-12-20T08:41:15.528Z,12.30
2022-12-20T08:43:44.258Z,12.77
2022-12-20T08:46:13.401Z,13.07
2022-12-20T08:48:42.155Z,12.97
2022-12-20T08:51:12.649Z,13.23
2022-12-20T08:53:41.436Z,13.30
2022-12-20T08:56:13.875Z,12.67
2022-12-20T08:58:44.256Z,12.70
2022-12-20T09:01:16.483Z,12.00
2022-12-20T09:03:45.869Z,12.03
2022-12-20T09:06:20.909Z,11.63
2022-12-20T09:08:50.089Z,12.30
2022-12-20T09:11:22.760Z,12.27
2022-12-20T09:13:54.366Z,12.60
2022-12-20T09:16:27.630Z,13.00
2022-12-20T09:19:04.687Z,13.07
2022-12-20T09:21:34.198Z,12.87
2022-12-20T09:24:02.310Z,12.27
2022-12-20T09:26:30.969Z,12.07
2022-12-20T09:29:02.056Z,12.03
2022-12-20T09:31:31.007Z,13.90
2022-12-20T09:34:01.332Z,12.80
2022-12-20T09:36:30.892Z,13.27
2022-12-20T09:38:59.856Z,14.70
2022-12-20T09:41:44.111Z,13.47
2022-12-20T09:44:37.747Z,13.37
2022-12-20T09:47:11.145Z,13.27
2022-12-20T09:49:45.750Z,13.83
2022-12-20T09:52:50.096Z,13.60
2022-12-20T09:56:02.403Z,13.57
2022-12-20T09:58:59.688Z,11.30
2022-12-20T10:01:38.254Z,12.63
2022-12-20T10:04:30.098Z,11.47
2022-12-20T10:07:04.326Z,11.13
2022-12-20T10:10:10.436Z,11.37
2022-12-20T10:12:44.966Z,11.67
2022-12-20T10:15:34.759Z,11.73
2022-12-20T10:18:41.075Z,11.30
2022-12-20T10:21:57.840Z,11.37
2022-12-20T10:24:36.535Z,12.00
2022-12-20T10:27:21.174Z,11.33
2022-12-20T10:29:51.692Z,10.47
2022-12-20T10:32:24.038Z,11.00
2022-12-20T10:35:29.200Z,10.03
2022-12-20T10:38:09.112Z,10.47
2022-12-20T10:41:21.222Z,10.90
2022-12-20T10:44:00.018Z,10.10
2022-12-20T10:46:45.626Z,9.83
2022-12-20T10:49:37.043Z,10.73
2022-12-20T10:52:11.112Z,10.00
2022-12-20T10:54:48.800Z,10.40
2022-12-20T10:57:24.536Z,9.73
2022-12-20T10:59:54.343Z,9.23
2022-12-20T11:03:04.946Z,8.63
2022-12-20T11:05:33.469Z,8.83
2022-12-20T11:08:36.039Z,9.77
2022-12-20T11:11:20.318Z,8.53
2022-12-20T11:13:49.451Z,8.60
2022-12-20T11:16:36.130Z,9.70
2022-12-20T11:19:17.377Z,9.33
2022-12-20T11:21:53.008Z,9.30
2022-12-20T11:24:21.351Z,9.40
2022-12-20T11:27:25.277Z,9.50
2022-12-20T11:30:24.475Z,9.80
2022-12-20T11:33:23.695Z,9.43
2022-12-20T11:36:08.433Z,9.40
2022-12-20T11:38:47.710Z,9.13
2022-12-20T11:41:44.976Z,9.70
2022-12-20T11:44:55.509Z,9.13
2022-12-20T11:47:58.959Z,9.00
2022-12-20T11:50:47.818Z,10.33
2022-12-20T11:53:29.659Z,9.40
2022-12-20T11:56:03.525Z,9.37
2022-12-20T11:58:48.504Z,9.17
2022-12-20T12:01:24.359Z,9.37
2022-12-20T12:04:22.731Z,9.90
2022-12-20T12:07:03.422Z,10.43
2022-12-20T12:09:41.328Z,10.00
2022-12-20T12:12:32.398Z,9.67
2022-12-20T12:15:22.676Z,10.37
2022-12-20T12:18:03.196Z,10.03
2022-12-20T12:20:49.481Z,11.00
2022-12-20T12:23:57.296Z,9.40
2022-12-20T12:26:40.911Z,10.27
2022-12-20T12:29:17.011Z,10.80
2022-12-20T12:32:03.367Z,10.10
2022-12-20T12:35:04.833Z,9.53
2022-12-20T12:37:36.081Z,9.27
2022-12-20T12:40:31.129Z,9.27
2022-12-20T12:43:52.641Z,10.57
2022-12-20T12:46:33.175Z,9.77
2022-12-20T12:49:08.162Z,9.87
2022-12-20T12:51:44.216Z,9.50
2022-12-20T12:54:31.005Z,10.43
2022-12-20T12:57:07.963Z,9.57
2022-12-20T12:59:36.454Z,9.20
2022-12-20T13:02:05.130Z,9.70
2022-12-20T13:04:54.615Z,9.63
2022-12-20T13:07:35.269Z,10.10
2022-12-20T13:10:19.070Z,9.27
2022-12-20T13:12:52.793Z,10.20
2022-12-20T13:15:21.029Z,9.33
2022-12-20T13:18:12.265Z,8.83
2022-12-20T13:20:41.159Z,8.87
2022-12-20T13:23:12.727Z,9.40
2022-12-20T13:25:46.685Z,9.80
2022-12-20T13:28:18.077Z,10.57
2022-12-20T13:30:47.784Z,9.30
2022-12-20T13:33:24.841Z,10.10
2022-12-20T13:36:03.600Z,9.03
2022-12-20T13:38:46.958Z,9.20
2022-12-20T13:41:53.193Z,10.40
2022-12-20T13:44:41.147Z,9.40
2022-12-20T13:47:35.571Z,8.87
2022-12-20T13:50:33.112Z,9.43
2022-12-20T13:53:01.890Z,9.07
2022-12-20T13:55:40.421Z,9.60
2022-12-20T13:58:20.007Z,9.40
2022-12-20T14:00:50.066Z,9.50
2022-12-20T14:03:30.942Z,9.73
2022-12-20T14:06:13.747Z,9.13
2022-12-20T14:08:52.635Z,9.47
2022-12-20T14:11:27.273Z,9.10
2022-12-20T14:14:14.118Z,9.67
2022-12-20T14:16:42.327Z,10.30
2022-12-20T14:19:16.503Z,9.87
2022-12-20T14:21:46.800Z,10.07
2022-12-20T14:24:22.063Z,9.13
2022-12-20T14:26:54.140Z,9.97
2022-12-20T14:29:30.576Z,10.07
2022-12-20T14:31:59.032Z,10.20
2022-12-20T14:34:39.800Z,9.20
2022-12-20T14:37:31.352Z,9.43
2022-12-20T14:40:20.548Z,9.70
2022-12-20T14:42:49.056Z,10.53
2022-12-20T14:45:19.519Z,10.57
2022-12-20T14:48:09.392Z,10.20
2022-12-20T14:50:40.845Z,11.10
2022-12-20T14:53:27.637Z,10.30
2022-12-20T14:55:56.468Z,10.37
2022-12-20T14:58:36.066Z,9.83
2022-12-20T15:01:17.024Z,10.63
2022-12-20T15:03:58.655Z,10.60
2022-12-20T15:06:41.194Z,9.97
2022-12-20T15:09:09.690Z,12.03
2022-12-20T15:11:39.706Z,12.50
2022-12-20T15:14:38.949Z,11.07
2022-12-20T15:17:15.868Z,11.57
2022-12-20T15:19:45.122Z,10.73
2022-12-20T15:22:19.400Z,10.60
2022-12-20T15:24:48.049Z,11.00
2022-12-20T15:27:16.868Z,11.33
2022-12-20T15:29:45.453Z,10.17
2022-12-20T15:32:26.040Z,11.17
2022-12-20T15:34:54.161Z,10.33
2022-12-20T15:37:22.717Z,10.70
2022-12-20T15:39:50.873Z,10.20
2022-12-20T15:42:21.137Z,10.80
2022-12-20T15:44:49.222Z,9.63
2022-12-20T15:47:18.581Z,10.90
2022-12-20T15:49:50.433Z,10.20
2022-12-20T15:52:24.837Z,10.20
2022-12-20T15:54:53.349Z,11.10
2022-12-20T15:57:21.944Z,10.73
2022-12-20T16:00:00.905Z,10.37
2022-12-20T16:02:31.728Z,10.03
2022-12-20T16:05:00.383Z,10.53
2022-12-20T16:07:29.018Z,11.03
2022-12-20T16:09:57.604Z,10.47
2022-12-20T16:12:34.515Z,10.80
2022-12-20T16:15:03.423Z,10.93
2022-12-20T16:17:31.512Z,9.57
2022-12-20T16:19:59.995Z,10.60
2022-12-20T16:22:28.368Z,10.37
2022-12-20T16:24:56.853Z,10.17
2022-12-20T16:27:25.556Z,10.70
2022-12-20T16:29:54.014Z,10.87
2022-12-20T16:32:22.928Z,10.00
2022-12-20T16:34:52.384Z,11.17
2022-12-20T16:37:21.175Z,11.63
2022-12-20T16:39:49.511Z,13.37
2022-12-20T16:42:22.426Z,11.83
2022-12-20T16:44:55.336Z,10.90
2022-12-20T16:47:24.549Z,11.03
2022-12-20T16:49:54.016Z,10.53
2022-12-20T16:52:23.812Z,10.40
2022-12-20T16:54:53.154Z,10.77
2022-12-20T16:57:22.545Z,10.23
2022-12-20T16:59:50.740Z,10.37
2022-12-20T17:02:30.632Z,10.53
2022-12-20T17:04:59.989Z,10.43
2022-12-20T17:07:28.644Z,11.10
2022-12-20T17:09:57.448Z,11.43
2022-12-20T17:12:26.091Z,11.00
2022-12-20T17:14:54.205Z,10.93
2022-12-20T17:17:22.712Z,10.53
2022-12-20T17:19:51.197Z,10.83
2022-12-20T17:25:05.548Z,10.67
2022-12-20T17:27:34.180Z,10.87
2022-12-20T17:30:02.752Z,10.60
2022-12-20T17:32:30.879Z,11.30
2022-12-20T17:34:59.386Z,10.97
2022-12-20T17:40:17.231Z,12.07
2022-12-20T17:42:45.825Z,11.17
2022-12-20T17:45:36.307Z,10.70
2022-12-20T17:48:06.497Z,10.70
2022-12-20T17:50:35.001Z,12.17
2022-12-20T17:53:04.184Z,11.30
2022-12-20T17:55:32.579Z,11.43
2022-12-20T17:58:01.332Z,10.33
2022-12-20T18:00:39.009Z,10.50
2022-12-20T18:03:08.961Z,11.07
2022-12-20T18:05:41.788Z,9.97
2022-12-20T18:08:10.240Z,11.37
2022-12-20T18:10:38.690Z,11.27
2022-12-20T18:13:06.811Z,10.60
2022-12-20T18:15:34.915Z,12.57
2022-12-20T18:18:03.003Z,10.17
2022-12-20T18:20:31.500Z,12.27
2022-12-20T18:23:00.028Z,10.77
2022-12-20T18:25:30.363Z,11.20
2022-12-20T18:27:58.852Z,12.30
2022-12-20T18:30:26.965Z,11.97
2022-12-20T18:32:55.024Z,11.50
2022-12-20T18:35:23.534Z,11.27
2022-12-20T18:37:52.037Z,11.23
2022-12-20T18:40:20.226Z,12.30
2022-12-20T18:42:48.273Z,11.63
2022-12-20T18:45:16.773Z,10.83
2022-12-20T18:47:45.655Z,11.43
2022-12-20T18:50:14.377Z,11.07
2022-12-20T18:52:43.278Z,11.97
2022-12-20T18:55:15.894Z,11.77
2022-12-20T18:57:44.336Z,10.83
2022-12-20T19:00:13.322Z,12.03
2022-12-20T19:02:41.493Z,10.37
2022-12-20T19:05:10.151Z,11.87
2022-12-20T19:07:38.173Z,11.10
2022-12-20T19:10:07.196Z,10.47
2022-12-20T19:12:36.017Z,11.47
2022-12-20T19:15:04.918Z,11.30
2022-12-20T19:17:33.444Z,10.40
2022-12-20T19:20:02.039Z,11.17
2022-12-20T19:22:30.515Z,10.77
2022-12-20T19:24:58.986Z,11.23
2022-12-20T19:27:27.049Z,12.97
2022-12-20T19:29:55.591Z,11.23
2022-12-20T19:32:24.120Z,11.00
2022-12-20T19:34:52.217Z,13.13
2022-12-20T19:37:20.618Z,11.90
2022-12-20T19:39:49.045Z,10.90
2022-12-20T19:42:25.459Z,11.83
2022-12-20T19:44:54.229Z,11.80
2022-12-20T19:47:23.601Z,12.23
2022-12-20T19:49:51.815Z,11.57
2022-12-20T19:52:26.504Z,11.50
2022-12-20T19:54:56.805Z,12.20
2022-12-20T19:57:25.382Z,12.17
2022-12-20T19:59:56.159Z,11.40
2022-12-20T20:02:24.894Z,11.57
2022-12-20T20:04:53.475Z,11.97
2022-12-20T20:07:21.990Z,12.47
2022-12-20T20:09:50.434Z,12.03
2022-12-20T20:12:18.940Z,10.97
2022-12-20T20:14:47.568Z,10.97
2022-12-20T20:17:16.064Z,11.67
2022-12-20T20:19:46.795Z,11.27
2022-12-20T20:22:20.860Z,12.60
2022-12-20T20:24:51.314Z,12.20
2022-12-20T20:27:19.817Z,11.27
2022-12-20T20:29:51.247Z,11.27
2022-12-20T20:32:19.718Z,12.00
2022-12-20T20:34:47.845Z,13.20
2022-12-20T20:37:16.493Z,11.70
2022-12-20T20:39:45.000Z,11.70
2022-12-20T20:42:16.055Z,10.63
2022-12-20T20:44:48.326Z,10.20
2022-12-20T20:47:16.464Z,10.53
2022-12-20T20:49:44.911Z,11.37
2022-12-20T20:52:13.393Z,10.67
2022-12-20T20:54:41.841Z,11.37
2022-12-20T20:57:09.902Z,11.67
2022-12-20T20:59:38.447Z,11.83
2022-12-20T21:02:06.619Z,11.10
2022-12-20T21:04:34.871Z,12.33
2022-12-20T21:07:03.299Z,10.43
2022-12-20T21:09:32.625Z,10.37
2022-12-20T21:12:00.897Z,11.40
2022-12-20T21:14:53.400Z,11.33
2022-12-20T21:17:17.960Z,12.03
2022-12-20T21:19:46.081Z,12.23
2022-12-20T21:22:14.508Z,12.07
2022-12-20T21:24:43.012Z,11.40
2022-12-20T21:27:11.471Z,12.40
2022-12-20T21:29:39.990Z,12.40
2022-12-20T21:32:08.209Z,14.00
2022-12-20T21:34:36.326Z,12.40
2022-12-20T21:37:04.424Z,11.23
2022-12-20T21:39:32.966Z,10.67
2022-12-20T21:42:02.170Z,11.73
2022-12-20T21:44:31.088Z,12.10
2022-12-20T21:46:59.589Z,11.17
2022-12-20T21:49:28.426Z,12.27
2022-12-20T21:51:56.951Z,12.00
2022-12-20T21:54:25.327Z,13.17
2022-12-20T21:56:53.790Z,11.80
2022-12-20T21:59:22.290Z,11.10
2022-12-20T22:01:50.969Z,13.07
2022-12-20T22:04:25.875Z,12.40
2022-12-20T22:06:54.397Z,11.83
2022-12-20T22:09:22.881Z,11.23
2022-12-20T22:11:50.927Z,11.50
2022-12-20T22:14:19.382Z,11.77
2022-12-20T22:16:47.544Z,11.77
2022-12-20T22:19:16.687Z,12.40
2022-12-20T22:21:45.128Z,11.87
2022-12-20T22:24:13.597Z,11.73
2022-12-20T22:26:41.964Z,12.33
2022-12-20T22:29:10.745Z,11.57
2022-12-20T22:31:39.235Z,12.03
2022-12-20T22:34:07.732Z,12.23
2022-12-20T22:36:37.004Z,11.90
2022-12-20T22:39:05.809Z,11.33
2022-12-20T22:41:35.348Z,11.33
2022-12-20T22:44:05.002Z,11.50
2022-12-20T22:46:34.209Z,11.10
2022-12-20T22:49:02.505Z,11.67
2022-12-20T22:51:33.644Z,13.40
2022-12-20T22:54:02.505Z,10.87
2022-12-20T22:56:31.000Z,11.93
2022-12-20T22:58:59.647Z,12.23
2022-12-20T23:01:28.291Z,12.33
2022-12-20T23:03:56.951Z,12.17
2022-12-20T23:06:25.431Z,11.83
2022-12-20T23:08:53.867Z,11.47
2022-12-20T23:11:44.257Z,11.03
2022-12-20T23:14:35.879Z,12.83
2022-12-20T23:17:06.444Z,12.57
2022-12-20T23:19:55.344Z,12.67
2022-12-20T23:22:39.317Z,12.53
2022-12-20T23:25:14.274Z,12.87
2022-12-20T23:27:44.727Z,12.70
2022-12-20T23:30:17.626Z,13.60
2022-12-20T23:32:46.249Z,13.70
2022-12-20T23:35:17.569Z,14.00
2022-12-20T23:37:46.598Z,12.83
2022-12-20T23:40:17.280Z,13.90
2022-12-20T23:42:46.167Z,13.27
2022-12-20T23:45:14.777Z,13.33
2022-12-20T23:47:43.018Z,14.63
2022-12-20T23:50:11.621Z,13.97
2022-12-20T23:52:40.543Z,14.10
2022-12-20T23:55:09.979Z,14.93
2022-12-20T23:57:38.497Z,14.87
